Time;durP1;ratioP1;P1;durP2;ratioP2;P2;SDS_P1;SDS_P2;PMS_P1;PMS_P2;Temp;Humidity;BMP_temperature;BMP_pressure;BME280_temperature;BME280_humidity;BME280_pressure;Samples;Min_cycle;Max_cycle;Signal;HPM_P1;HPM_P2
2022/05/16 00:01:28;;;;;;;;;;;;;;;18.08;44.95;101267.78;5049157;28;20014;-57
2022/05/16 00:03:53;;;;;;;;;;;;;;;18.08;44.95;101258.88;5049835;28;19921;-57
2022/05/16 00:06:19;;;;;;;;;;;;;;;18.04;45.34;101261.13;5047706;28;19921;-57
2022/05/16 00:08:44;;;;;;;;;;;;;;;18.03;45.20;101259.47;5046193;28;19925;-58
2022/05/16 00:11:09;;;;;;;;;;;;;;;17.98;45.70;101259.25;5049011;28;19956;-57
2022/05/16 00:13:34;;;;;;;;;;;;;;;17.96;45.57;101255.94;5051174;28;19920;-57
2022/05/16 00:16:00;;;;;;;;;;;;;;;17.95;45.15;101254.28;5051954;28;19961;-57
2022/05/16 00:18:25;;;;;;;;;;;;;;;17.94;45.52;101260.66;5044603;28;19943;-57
2022/05/16 00:20:50;;;;;;;;;;;;;;;17.90;45.88;101246.00;5050782;28;19925;-57
2022/05/16 00:23:16;;;;;;;;;;;;;;;17.84;46.13;101248.47;5053337;28;19917;-57
2022/05/16 00:25:41;;;;;;;;;;;;;;;17.82;47.18;101245.13;5052277;28;19980;-57
2022/05/16 00:28:06;;;;;;;;;;;;;;;17.78;46.06;101235.84;5051278;28;19917;-57
2022/05/16 00:30:31;;;;;;;;;;;;;;;17.78;46.05;101238.53;5050027;28;19921;-57
2022/05/16 00:32:57;;;;;;;;;;;;;;;17.75;46.45;101238.91;5049462;28;19939;-57
2022/05/16 00:35:22;;;;;;;;;;;;;;;17.72;46.30;101239.34;5050624;28;20015;-57
2022/05/16 00:37:47;;;;;;;;;;;;;;;17.68;46.54;101238.06;5049344;28;19928;-57
2022/05/16 00:40:14;;;;;;;;;;;;;;;17.66;47.03;101237.44;5052163;28;20271;-57
2022/05/16 00:42:39;;;;;;;;;;;;;;;17.61;47.29;101238.88;5051191;28;20011;-57
2022/05/16 00:45:05;;;;;;;;;;;;;;;17.58;46.74;101239.25;5051024;28;20567;-56
2022/05/16 00:47:30;;;;;;;;;;;;;;;17.56;46.87;101238.63;5050238;28;19924;-57
2022/05/16 00:49:56;;;;;;;;;;;;;;;17.53;46.95;101236.38;5047376;28;19957;-57
2022/05/16 00:52:25;;;;;;;;;;;;;;;17.51;46.65;101241.06;5048781;28;19928;-57
2022/05/16 00:54:53;;;;;;;;;;;;;;;17.49;46.84;101235.09;5048796;28;19920;-57
2022/05/16 00:57:20;;;;;;;;;;;;;;;17.50;47.07;101227.88;5048977;28;19917;-57
2022/05/16 00:59:50;;;;;;;;;;;;;;;17.44;47.54;101226.81;5051399;28;19921;-56
2022/05/16 01:05:01;;;;;;;;;;;;;;;17.43;47.30;101227.84;5047823;28;19966;-57
2022/05/16 01:07:28;;;;;;;;;;;;;;;17.42;47.22;101223.50;5042444;28;19925;-57
2022/05/16 01:09:53;;;;;;;;;;;;;;;17.43;47.57;101214.44;5046472;28;19917;-57
2022/05/16 01:12:19;;;;;;;;;;;;;;;17.34;47.90;101222.66;5034825;28;19959;-57
2022/05/16 01:14:52;;;;;;;;;;;;;;;17.33;47.42;101218.28;5049786;28;19974;-57
2022/05/16 01:17:18;;;;;;;;;;;;;;;17.25;48.24;101223.81;5051760;28;20370;-57
2022/05/16 01:19:43;;;;;;;;;;;;;;;17.25;47.77;101222.97;5049113;28;19921;-57
2022/05/16 01:22:17;;;;;;;;;;;;;;;17.25;48.14;101220.28;5047972;28;19927;-57
2022/05/16 01:24:42;;;;;;;;;;;;;;;17.20;48.59;101227.09;5044382;28;19928;-57
2022/05/16 01:27:08;;;;;;;;;;;;;;;17.19;48.36;101235.31;5049337;28;19940;-57
2022/05/16 01:29:33;;;;;;;;;;;;;;;17.17;49.08;101238.19;5048631;28;19920;-57
2022/05/16 01:31:58;;;;;;;;;;;;;;;17.14;47.90;101237.75;5047019;28;19952;-57
2022/05/16 01:34:23;;;;;;;;;;;;;;;17.12;48.57;101229.09;5051645;28;19920;-57
2022/05/16 01:36:48;;;;;;;;;;;;;;;17.10;48.77;101220.41;5044078;28;19929;-57
2022/05/16 01:39:14;;;;;;;;;;;;;;;17.10;48.28;101220.41;5050622;28;19956;-57
2022/05/16 01:41:39;;;;;;;;;;;;;;;17.04;49.03;101222.88;5051154;28;20002;-57
2022/05/16 01:44:04;;;;;;;;;;;;;;;17.04;48.39;101228.22;5051514;28;19991;-57
2022/05/16 01:46:33;;;;;;;;;;;;;;;17.01;49.40;101217.03;5046221;28;19925;-57
2022/05/16 01:48:58;;;;;;;;;;;;;;;16.97;49.16;101213.91;5047621;28;20427;-57
2022/05/16 01:51:23;;;;;;;;;;;;;;;16.95;49.21;101213.28;5047873;28;19920;-57
2022/05/16 01:53:49;;;;;;;;;;;;;;;16.93;49.09;101216.16;5050165;28;20279;-57
2022/05/16 01:56:14;;;;;;;;;;;;;;;16.91;49.23;101212.00;5049728;28;19952;-57
2022/05/16 01:58:41;;;;;;;;;;;;;;;16.90;49.72;101205.00;5042371;28;19928;-57
2022/05/16 02:01:07;;;;;;;;;;;;;;;16.86;49.62;101201.88;5050002;28;19967;-58
2022/05/16 02:03:32;;;;;;;;;;;;;;;16.83;48.88;101193.41;5045331;28;19953;-57
2022/05/16 02:05:57;;;;;;;;;;;;;;;16.80;48.97;101194.63;5047217;28;20059;-58
2022/05/16 02:08:22;;;;;;;;;;;;;;;16.78;49.67;101191.31;5048640;28;20007;-57
2022/05/16 02:10:48;;;;;;;;;;;;;;;16.74;49.70;101196.25;5048809;28;20387;-57
2022/05/16 02:13:13;;;;;;;;;;;;;;;16.71;49.64;101198.44;5047697;28;19967;-57
2022/05/16 02:15:40;;;;;;;;;;;;;;;16.68;50.97;101197.03;5051202;28;19921;-57
2022/05/16 02:18:06;;;;;;;;;;;;;;;16.64;50.24;101185.03;5048937;28;20275;-57
2022/05/16 02:20:31;;;;;;;;;;;;;;;16.63;49.61;101188.72;5047772;28;20282;-58
2022/05/16 02:25:43;;;;;;;;;;;;;;;16.57;50.56;101187.63;5050278;28;19975;-57
2022/05/16 02:28:10;;;;;;;;;;;;;;;16.51;51.54;101181.22;5050202;28;19920;-57
2022/05/16 02:30:35;;;;;;;;;;;;;;;16.48;51.08;101181.59;5049626;28;20347;-57
2022/05/16 02:33:00;;;;;;;;;;;;;;;16.47;51.80;101173.78;5050598;28;19971;-56
2022/05/16 02:35:25;;;;;;;;;;;;;;;16.46;50.95;101172.09;5054367;28;19921;-57
2022/05/16 02:37:50;;;;;;;;;;;;;;;16.47;50.42;101171.09;5053121;28;20012;-58
2022/05/16 02:40:16;;;;;;;;;;;;;;;16.48;51.80;101170.88;5049699;28;19950;-57
2022/05/16 02:42:41;;;;;;;;;;;;;;;16.45;52.20;101165.94;5049907;28;19936;-57
2022/05/16 02:45:07;;;;;;;;;;;;;;;16.43;52.64;101165.28;5052903;28;20303;-57
2022/05/16 02:47:32;;;;;;;;;;;;;;;16.39;52.37;101162.16;5048923;28;19959;-57
2022/05/16 02:49:58;;;;;;;;;;;;;;;16.37;54.00;101156.19;5037543;28;19956;-57
2022/05/16 02:52:23;;;;;;;;;;;;;;;16.36;51.95;101153.69;5051401;28;19921;-57
2022/05/16 02:54:48;;;;;;;;;;;;;;;16.34;52.90;101158.41;5050880;28;19921;-57
2022/05/16 02:57:13;;;;;;;;;;;;;;;16.32;51.28;101155.13;5053354;28;19963;-57
2022/05/16 02:59:39;;;;;;;;;;;;;;;16.32;52.64;101153.25;5052348;28;19932;-57
2022/05/16 03:02:06;;;;;;;;;;;;;;;16.31;53.36;101148.09;5051629;28;20302;-57
2022/05/16 03:04:31;;;;;;;;;;;;;;;16.31;51.16;101145.41;5048106;28;19920;-57
2022/05/16 03:06:57;;;;;;;;;;;;;;;16.30;52.50;101144.59;5053290;28;20328;-57
2022/05/16 03:09:22;;;;;;;;;;;;;;;16.30;53.62;101143.75;5052507;28;19921;-57
2022/05/16 03:11:48;;;;;;;;;;;;;;;16.26;52.38;101146.84;5052000;28;20257;-57
2022/05/16 03:14:13;;;;;;;;;;;;;;;16.24;52.11;101137.34;5048819;28;19928;-58
2022/05/16 03:16:38;;;;;;;;;;;;;;;16.26;52.70;101135.28;5053177;28;19928;-57
2022/05/16 03:19:04;;;;;;;;;;;;;;;16.26;51.76;101146.00;5053054;28;19995;-57
2022/05/16 03:21:30;;;;;;;;;;;;;;;16.28;53.17;101149.28;5052265;28;19983;-57
2022/05/16 03:23:56;;;;;;;;;;;;;;;16.26;52.54;101146.84;5049899;28;19917;-58
2022/05/16 03:26:21;;;;;;;;;;;;;;;16.24;53.06;101146.19;5053258;28;20000;-58
2022/05/16 03:28:46;;;;;;;;;;;;;;;16.23;53.62;101146.41;5047252;28;19921;-57
2022/05/16 03:31:11;;;;;;;;;;;;;;;16.21;52.91;101149.25;5052198;28;19923;-57
2022/05/16 03:33:37;;;;;;;;;;;;;;;16.22;53.14;101150.91;5049826;28;20057;-57
2022/05/16 03:36:02;;;;;;;;;;;;;;;16.24;52.32;101151.53;5042053;28;20007;-57
2022/05/16 03:41:11;;;;;;;;;;;;;;;16.22;53.04;101145.56;5051000;28;19932;-57
2022/05/16 03:43:38;;;;;;;;;;;;;;;16.22;52.87;101144.72;5047585;28;20298;-57
2022/05/16 03:46:03;;;;;;;;;;;;;;;16.17;53.73;101142.63;5054001;28;19920;-57
2022/05/16 03:48:28;;;;;;;;;;;;;;;16.14;52.45;101140.34;5050310;28;20532;-57
2022/05/16 03:50:53;;;;;;;;;;;;;;;16.13;53.21;101138.66;5051870;28;19928;-57
2022/05/16 03:53:19;;;;;;;;;;;;;;;16.12;52.96;101145.03;5050185;28;19979;-57
2022/05/16 03:55:44;;;;;;;;;;;;;;;16.11;53.07;101140.72;5048773;28;19999;-57
2022/05/16 03:58:09;;;;;;;;;;;;;;;16.11;52.92;101138.03;5043485;28;19917;-57
2022/05/16 04:00:35;;;;;;;;;;;;;;;16.10;54.21;101136.38;5043039;28;20016;-58
2022/05/16 04:03:00;;;;;;;;;;;;;;;16.09;53.17;101140.88;5045018;28;19921;-58
2022/05/16 04:05:25;;;;;;;;;;;;;;;16.09;53.09;101134.72;5048212;28;20011;-57
2022/05/16 04:07:51;;;;;;;;;;;;;;;16.06;52.83;101133.25;5049271;28;19917;-57
2022/05/16 04:10:16;;;;;;;;;;;;;;;16.04;53.08;101135.28;5046523;28;20299;-57
2022/05/16 04:12:42;;;;;;;;;;;;;;;16.04;52.56;101131.78;5051189;28;19924;-57
2022/05/16 04:15:07;;;;;;;;;;;;;;;16.03;53.17;101135.50;5050098;28;19947;-57
2022/05/16 04:17:33;;;;;;;;;;;;;;;16.02;54.25;101139.19;5038151;28;20422;-58
2022/05/16 04:19:58;;;;;;;;;;;;;;;16.00;53.92;101145.53;5052526;28;19980;-57
2022/05/16 04:22:23;;;;;;;;;;;;;;;15.97;53.96;101135.22;5049882;28;20003;-58
2022/05/16 04:24:49;;;;;;;;;;;;;;;16.00;53.52;101153.56;5048551;28;20008;-57
2022/05/16 04:27:15;;;;;;;;;;;;;;;16.00;54.63;101142.88;5050382;28;19924;-57
2022/05/16 04:29:40;;;;;;;;;;;;;;;16.00;54.62;101152.75;5051446;28;19966;-57
2022/05/16 04:32:05;;;;;;;;;;;;;;;16.00;54.12;101148.22;5050322;28;19920;-57
2022/05/16 04:34:30;;;;;;;;;;;;;;;15.98;54.47;101144.91;5039791;28;19927;-57
2022/05/16 04:36:56;;;;;;;;;;;;;;;15.99;54.79;101156.44;5051841;28;19920;-58
2022/05/16 04:39:21;;;;;;;;;;;;;;;16.02;54.19;101141.88;5050372;28;19935;-57
2022/05/16 04:44:36;;;;;;;;;;;;;;;16.09;55.02;101150.78;5048451;28;19927;-57
2022/05/16 04:47:01;;;;;;;;;;;;;;;16.11;55.44;101148.72;5050244;28;19920;-57
2022/05/16 04:49:26;;;;;;;;;;;;;;;16.10;55.95;101147.09;5052282;28;19948;-57
2022/05/16 04:51:51;;;;;;;;;;;;;;;16.11;55.50;101151.41;5048558;28;20369;-58
2022/05/16 04:54:17;;;;;;;;;;;;;;;16.14;57.03;101148.38;5049083;28;20016;-57
2022/05/16 04:56:42;;;;;;;;;;;;;;;16.17;56.52;101157.84;5049084;28;20015;-57
2022/05/16 04:59:08;;;;;;;;;;;;;;;16.20;57.04;101160.97;5051523;28;20587;-57
2022/05/16 05:01:34;;;;;;;;;;;;;;;16.25;55.56;101169.22;5040056;28;20728;-57
2022/05/16 05:03:59;;;;;;;;;;;;;;;16.32;56.03;101172.00;5038973;28;19928;-58
2022/05/16 05:06:24;;;;;;;;;;;;;;;16.40;55.96;101158.47;5044451;28;19977;-57
2022/05/16 05:08:49;;;;;;;;;;;;;;;16.44;56.37;101163.44;5041207;28;19946;-58
2022/05/16 05:16:43;;;;;;;;;;;;;;;16.64;54.40;101163.63;5044916;28;19927;-58
2022/05/16 05:19:08;;;;;;;;;;;;;;;16.71;56.24;101159.13;5042447;28;19920;-59
2022/05/16 05:21:33;;;;;;;;;;;;;;;16.77;55.63;101166.38;5042314;28;20411;-59
2022/05/16 05:23:58;;;;;;;;;;;;;;;16.84;55.81;101169.13;5038514;28;19921;-57
2022/05/16 05:26:23;;;;;;;;;;;;;;;16.89;55.82;101165.84;5041887;28;19948;-57
2022/05/16 05:28:49;;;;;;;;;;;;;;;16.93;55.94;101161.75;5041798;28;19992;-57
2022/05/16 05:31:15;;;;;;;;;;;;;;;16.97;57.20;101165.69;5042417;28;19928;-57
2022/05/16 05:33:41;;;;;;;;;;;;;;;17.02;56.16;101155.25;5041999;28;20370;-57
2022/05/16 05:36:08;;;;;;;;;;;;;;;17.09;53.87;101155.28;5046382;28;19925;-57
2022/05/16 05:38:33;;;;;;;;;;;;;;;17.18;55.79;101158.63;5043364;28;19921;-57
2022/05/16 05:40:58;;;;;;;;;;;;;;;17.23;53.48;101160.72;5042007;28;19955;-57
2022/05/16 05:43:23;;;;;;;;;;;;;;;17.31;54.79;101179.31;5046166;28;19920;-58
2022/05/16 05:45:49;;;;;;;;;;;;;;;17.39;55.12;101178.31;5050521;28;20282;-58
2022/05/16 05:48:14;;;;;;;;;;;;;;;17.44;54.07;101178.56;5051975;28;19921;-57
2022/05/16 05:50:39;;;;;;;;;;;;;;;17.51;54.46;101182.09;5048809;28;19928;-57
2022/05/16 05:53:05;;;;;;;;;;;;;;;17.55;53.99;101179.84;5047766;28;20398;-57
2022/05/16 05:55:30;;;;;;;;;;;;;;;17.58;54.45;101185.63;5049491;28;19920;-57
2022/05/16 05:57:55;;;;;;;;;;;;;;;17.63;54.59;101192.25;5048661;28;19960;-57
2022/05/16 06:00:21;;;;;;;;;;;;;;;17.64;54.55;101191.22;5047798;28;19921;-57
2022/05/16 06:02:46;;;;;;;;;;;;;;;17.67;54.46;101198.88;5048015;28;19921;-58
2022/05/16 06:05:13;;;;;;;;;;;;;;;17.70;53.06;101198.47;5049565;28;20034;-57
2022/05/16 06:07:38;;;;;;;;;;;;;;;17.73;54.32;101193.53;5048459;28;19932;-58
2022/05/16 06:10:04;;;;;;;;;;;;;;;17.79;54.21;101186.53;5044885;28;19929;-58
2022/05/16 06:12:30;;;;;;;;;;;;;;;17.84;53.24;101194.81;5054568;28;19967;-58
2022/05/16 06:14:55;;;;;;;;;;;;;;;17.87;52.69;101205.13;5053915;28;19921;-58
2022/05/16 06:17:21;;;;;;;;;;;;;;;17.92;52.85;101206.38;5053312;28;19967;-58
2022/05/16 06:19:46;;;;;;;;;;;;;;;17.93;53.17;101206.19;5053689;28;19924;-57
2022/05/16 06:22:11;;;;;;;;;;;;;;;17.99;54.20;101212.59;5053243;28;20376;-57
2022/05/16 06:27:20;;;;;;;;;;;;;;;18.08;54.26;101202.53;5052920;28;19931;-57
2022/05/16 06:29:46;;;;;;;;;;;;;;;18.10;53.50;101203.16;5049706;28;19933;-57
2022/05/16 06:32:11;;;;;;;;;;;;;;;18.14;54.11;101217.81;5046034;28;20288;-58
2022/05/16 06:34:36;;;;;;;;;;;;;;;18.15;54.14;101212.25;5034638;28;19925;-57
2022/05/16 06:37:01;;;;;;;;;;;;;;;18.18;53.89;101205.66;5048603;28;19916;-58
2022/05/16 06:39:27;;;;;;;;;;;;;;;18.24;53.57;101214.75;5045394;28;20130;-57
2022/05/16 06:41:52;;;;;;;;;;;;;;;18.23;53.57;101213.94;5049460;28;19921;-57
2022/05/16 06:44:19;;;;;;;;;;;;;;;18.30;53.33;101213.94;5047062;28;20343;-57
2022/05/16 06:46:44;;;;;;;;;;;;;;;18.31;54.42;101228.19;5044205;28;19928;-57
2022/05/16 06:49:10;;;;;;;;;;;;;;;18.31;55.50;101214.78;5046731;28;19928;-58
2022/05/16 06:51:35;;;;;;;;;;;;;;;18.34;54.17;101217.03;5048947;28;19924;-57
2022/05/16 06:54:01;;;;;;;;;;;;;;;18.42;52.81;101223.03;5047892;28;19920;-58
2022/05/16 06:56:26;;;;;;;;;;;;;;;18.52;53.24;101221.81;5046524;28;19971;-57
2022/05/16 06:58:51;;;;;;;;;;;;;;;18.55;53.94;101221.38;5043650;28;19963;-57
2022/05/16 07:01:16;;;;;;;;;;;;;;;18.60;53.21;101218.91;5047772;28;19948;-59
2022/05/16 07:03:43;;;;;;;;;;;;;;;18.61;53.58;101230.50;5046628;28;19929;-59
2022/05/16 07:06:08;;;;;;;;;;;;;;;18.64;54.32;101224.69;5055852;28;19975;-58
2022/05/16 07:08:34;;;;;;;;;;;;;;;18.68;54.48;101225.94;5053704;28;19979;-59
2022/05/16 07:10:59;;;;;;;;;;;;;;;18.73;55.53;101222.63;5053818;28;19966;-59
2022/05/16 07:13:25;;;;;;;;;;;;;;;18.76;54.29;101233.00;5054078;28;19972;-59
2022/05/16 07:15:51;;;;;;;;;;;;;;;18.82;53.96;101232.16;5043696;28;19921;-57
2022/05/16 07:18:16;;;;;;;;;;;;;;;18.90;53.40;101240.00;5052501;28;19928;-58
2022/05/16 07:20:41;;;;;;;;;;;;;;;18.94;53.47;101241.25;5050830;28;19920;-57
2022/05/16 07:23:06;;;;;;;;;;;;;;;19.03;54.66;101244.56;5053672;28;19946;-57
2022/05/16 07:27:56;;;;;;;;;;;;;;;19.09;52.99;101242.91;5034639;28;19921;-58
2022/05/16 07:28:20;;;;;;;;;;;;;;;19.19;54.10;101237.13;5054357;28;19928;-58
2022/05/16 07:30:45;;;;;;;;;;;;;;;19.29;53.04;101236.69;5035556;28;20283;-57
2022/05/16 07:33:11;;;;;;;;;;;;;;;19.36;54.31;101243.69;5052586;28;19921;-57
2022/05/16 07:35:38;;;;;;;;;;;;;;;19.43;52.89;101238.28;5052566;28;19955;-57
2022/05/16 07:38:04;;;;;;;;;;;;;;;19.54;54.40;101246.75;5045994;28;20342;-56
2022/05/16 07:40:30;;;;;;;;;;;;;;;19.62;54.34;101236.59;5053380;28;19925;-57
2022/05/16 07:42:56;;;;;;;;;;;;;;;19.73;54.28;101237.78;5044518;28;19963;-57
2022/05/16 07:45:21;;;;;;;;;;;;;;;19.81;53.12;101250.19;5051771;28;19920;-57
2022/05/16 07:47:47;;;;;;;;;;;;;;;19.87;53.65;101243.94;5052883;28;20012;-57
2022/05/16 07:50:12;;;;;;;;;;;;;;;19.96;53.60;101247.25;5046996;28;19963;-58
2022/05/16 07:52:38;;;;;;;;;;;;;;;19.97;54.21;101251.59;5051935;28;19928;-58
2022/05/16 07:55:04;;;;;;;;;;;;;;;20.02;53.63;101254.47;5043697;28;19929;-57
2022/05/16 07:57:30;;;;;;;;;;;;;;;20.06;53.92;101256.72;5049048;28;19921;-57
2022/05/16 07:59:55;;;;;;;;;;;;;;;20.09;54.51;101261.69;5045033;28;20248;-57
2022/05/16 08:02:20;;;;;;;;;;;;;;;20.10;54.40;101268.72;5049515;28;19959;-57
2022/05/16 08:04:45;;;;;;;;;;;;;;;20.12;55.18;101256.69;5039190;28;20449;-57
2022/05/16 08:07:11;;;;;;;;;;;;;;;20.28;55.03;101255.34;5043640;28;19964;-57
2022/05/16 08:12:27;;;;;;;;;;;;;;;20.47;53.44;101258.13;5051670;28;19928;-59
2022/05/16 08:14:52;;;;;;;;;;;;;;;20.67;53.29;101257.19;5045813;28;19920;-59
2022/05/16 08:17:18;;;;;;;;;;;;;;;20.78;53.45;101266.41;5052545;28;19951;-59
2022/05/16 08:19:43;;;;;;;;;;;;;;;20.86;53.10;101259.97;5051456;28;20401;-60
2022/05/16 08:22:08;;;;;;;;;;;;;;;20.99;52.64;101270.63;5052466;28;19925;-59
2022/05/16 08:24:33;;;;;;;;;;;;;;;21.10;52.66;101272.59;5049427;28;20651;-58
2022/05/16 08:27:02;;;;;;;;;;;;;;;21.27;53.50;101269.34;5047673;28;21413;-59
2022/05/16 08:29:27;;;;;;;;;;;;;;;21.51;52.77;101277.56;5047982;28;19928;-59
2022/05/16 08:31:53;;;;;;;;;;;;;;;21.75;52.30;101277.75;5056505;28;19921;-60
2022/05/16 08:34:18;;;;;;;;;;;;;;;21.94;52.16;101275.06;5045225;28;20268;-60
2022/05/16 08:42:12;;;;;;;;;;;;;;;22.63;51.06;101282.81;5042795;28;19927;-59
2022/05/16 08:44:56;;;;;;;;;;;;;;;22.62;51.00;101280.34;5051463;28;20035;-60
2022/05/16 08:47:21;;;;;;;;;;;;;;;22.75;50.67;101276.63;5050361;28;20359;-58
2022/05/16 08:49:53;;;;;;;;;;;;;;;22.80;50.36;101276.75;5049651;28;20398;-58
2022/05/16 08:52:27;;;;;;;;;;;;;;;22.87;50.15;101266.63;5051255;28;19928;-57
2022/05/16 08:55:04;;;;;;;;;;;;;;;22.96;50.29;101265.25;5049430;28;19921;-59
2022/05/16 08:57:40;;;;;;;;;;;;;;;23.11;49.51;101277.47;5051329;28;19956;-58
2022/05/16 09:00:19;;;;;;;;;;;;;;;23.20;49.74;101272.53;5042221;28;20380;-57
2022/05/16 09:02:48;;;;;;;;;;;;;;;23.27;49.35;101269.72;5049161;28;19928;-58
2022/05/16 09:05:13;;;;;;;;;;;;;;;23.33;49.28;101257.97;5050103;28;20341;-58
2022/05/16 09:07:47;;;;;;;;;;;;;;;23.45;49.25;101266.88;5049062;28;19928;-59
2022/05/16 09:10:17;;;;;;;;;;;;;;;23.59;49.03;101272.84;5050343;28;19921;-60
2022/05/16 09:12:45;;;;;;;;;;;;;;;23.64;48.93;101270.25;5050212;28;19925;-60
2022/05/16 09:15:19;;;;;;;;;;;;;;;23.73;48.75;101268.00;5037694;28;20033;-60
2022/05/16 09:18:03;;;;;;;;;;;;;;;23.68;48.53;101278.72;5049532;28;19974;-59
2022/05/16 09:20:28;;;;;;;;;;;;;;;23.75;48.42;101271.31;5046815;28;19929;-59
2022/05/16 09:23:18;;;;;;;;;;;;;;;23.83;47.91;101267.38;5046769;28;19974;-60
2022/05/16 09:25:49;;;;;;;;;;;;;;;23.85;48.44;101275.25;5048321;28;19921;-60
2022/05/16 09:31:02;;;;;;;;;;;;;;;24.11;48.40;101270.34;5041772;28;19928;-58
2022/05/16 09:33:29;;;;;;;;;;;;;;;24.21;48.30;101278.69;5049822;28;20404;-58
2022/05/16 09:35:58;;;;;;;;;;;;;;;24.36;47.70;101282.75;5054099;28;20003;-57
2022/05/16 09:38:23;;;;;;;;;;;;;;;24.38;47.76;101283.31;5051841;28;19963;-58
2022/05/16 09:40:58;;;;;;;;;;;;;;;24.52;47.14;101290.06;5048493;28;19989;-57
2022/05/16 09:43:23;;;;;;;;;;;;;;;24.49;47.41;101281.59;5045077;28;19960;-57
2022/05/16 09:45:51;;;;;;;;;;;;;;;24.64;46.93;101278.31;5052949;28;19952;-57
2022/05/16 09:48:18;;;;;;;;;;;;;;;24.62;48.11;101288.59;5054103;28;19999;-57
2022/05/16 09:50:54;;;;;;;;;;;;;;;24.76;47.03;101289.91;5046575;28;20333;-58
2022/05/16 09:53:27;;;;;;;;;;;;;;;25.02;46.01;101306.63;5052035;28;20383;-59
2022/05/16 09:55:54;;;;;;;;;;;;;;;24.96;46.59;101307.63;5057208;28;19982;-58
2022/05/16 09:58:22;;;;;;;;;;;;;;;24.97;46.50;101311.97;5054974;28;19924;-58
2022/05/16 10:00:58;;;;;;;;;;;;;;;25.04;46.44;101323.47;5051976;28;19921;-59
2022/05/16 10:03:30;;;;;;;;;;;;;;;25.11;46.19;101329.56;5054643;28;19974;-58
2022/05/16 10:05:57;;;;;;;;;;;;;;;25.08;46.50;101335.50;5049348;28;19928;-58
2022/05/16 10:08:29;;;;;;;;;;;;;;;24.93;47.02;101336.06;5050491;28;20398;-59
2022/05/16 10:10:55;;;;;;;;;;;;;;;24.95;46.66;101335.78;5052141;28;20399;-59
2022/05/16 10:13:20;;;;;;;;;;;;;;;24.95;46.65;101333.91;5049998;28;20302;-58
2022/05/16 10:15:48;;;;;;;;;;;;;;;24.71;47.10;101331.31;5050703;28;20015;-58
2022/05/16 10:18:16;;;;;;;;;;;;;;;24.70;46.68;101345.13;5052960;28;19921;-60
2022/05/16 10:20:46;;;;;;;;;;;;;;;24.45;47.22;101349.84;5052779;28;19921;-59
2022/05/16 10:23:37;;;;;;;;;;;;;;;24.29;47.82;101362.31;5045871;28;19967;-57
2022/05/16 10:26:06;;;;;;;;;;;;;;;24.15;49.33;101379.88;5039898;28;19928;-58
2022/05/16 10:28:35;;;;;;;;;;;;;;;23.95;50.74;101391.09;5034158;28;20338;-59
2022/05/16 10:33:48;;;;;;;;;;;;;;;23.03;53.22;101400.34;5052028;28;19927;-58
2022/05/16 10:36:24;;;;;;;;;;;;;;;22.78;54.18;101408.59;5051450;28;20489;-58
2022/05/16 10:39:01;;;;;;;;;;;;;;;22.64;54.97;101414.19;5047625;28;20271;-59
2022/05/16 10:41:30;;;;;;;;;;;;;;;22.59;57.26;101419.47;5055173;28;19991;-58
2022/05/16 10:44:01;;;;;;;;;;;;;;;22.36;57.46;101412.88;5044978;28;19925;-58
2022/05/16 10:46:29;;;;;;;;;;;;;;;22.23;57.76;101415.72;5047593;28;20003;-58
2022/05/16 10:49:07;;;;;;;;;;;;;;;22.25;57.92;101419.84;5049536;28;19929;-59
2022/05/16 10:51:55;;;;;;;;;;;;;;;22.47;58.67;101423.97;5051943;28;19921;-58
2022/05/16 10:54:21;;;;;;;;;;;;;;;22.62;57.93;101421.72;5043540;28;19921;-58
2022/05/16 10:56:53;;;;;;;;;;;;;;;22.73;57.81;101422.81;5050639;28;19921;-58
2022/05/16 10:59:37;;;;;;;;;;;;;;;22.80;57.26;101428.13;5053746;28;19944;-58
2022/05/16 11:02:08;;;;;;;;;;;;;;;22.80;57.50;101431.66;5049691;28;19921;-58
2022/05/16 11:04:40;;;;;;;;;;;;;;;22.84;57.53;101429.31;5052929;28;20367;-57
2022/05/16 11:07:15;;;;;;;;;;;;;;;22.92;56.97;101439.81;5054484;28;19944;-58
2022/05/16 11:09:59;;;;;;;;;;;;;;;22.80;56.47;101433.56;5045642;28;19921;-58
2022/05/16 11:12:27;;;;;;;;;;;;;;;22.77;56.85;101439.41;5049588;28;20003;-59
2022/05/16 11:15:04;;;;;;;;;;;;;;;22.70;56.65;101445.72;5051719;28;19928;-58
2022/05/16 11:17:47;;;;;;;;;;;;;;;22.68;56.98;101444.31;5053370;28;20008;-58
2022/05/16 11:20:32;;;;;;;;;;;;;;;22.47;57.21;101440.16;5052860;28;19921;-58
2022/05/16 11:23:03;;;;;;;;;;;;;;;22.36;58.67;101439.91;5045151;28;19920;-59
2022/05/16 11:25:44;;;;;;;;;;;;;;;22.40;58.21;101440.28;5051024;28;20385;-58
2022/05/16 11:28:24;;;;;;;;;;;;;;;22.29;59.39;101439.97;5039151;28;19975;-59
2022/05/16 11:31:02;;;;;;;;;;;;;;;22.25;58.45;101443.34;5047496;28;19927;-59
2022/05/16 11:33:32;;;;;;;;;;;;;;;22.12;59.93;101444.31;5052879;28;19974;-58
2022/05/16 11:36:00;;;;;;;;;;;;;;;22.03;60.24;101443.78;5051763;28;19925;-59
2022/05/16 11:38:37;;;;;;;;;;;;;;;21.96;61.53;101451.13;5052348;28;19916;-58
2022/05/16 11:41:21;;;;;;;;;;;;;;;22.04;60.96;101448.13;5046410;28;20027;-57
2022/05/16 11:43:48;;;;;;;;;;;;;;;22.08;60.93;101452.03;5049818;28;19921;-57
2022/05/16 11:46:20;;;;;;;;;;;;;;;22.15;60.48;101452.78;5051301;28;19927;-57
2022/05/16 11:48:57;;;;;;;;;;;;;;;22.28;60.64;101457.22;5052067;28;19974;-58
2022/05/16 11:51:22;;;;;;;;;;;;;;;22.23;60.63;101467.03;5050449;28;20555;-56
2022/05/16 11:53:50;;;;;;;;;;;;;;;22.14;60.32;101456.56;5044415;28;19935;-57
2022/05/16 12:02:09;;;;;;;;;;;;;;;22.23;60.04;101472.44;5044603;28;21608;-59
2022/05/16 12:04:42;;;;;;;;;;;;;;;22.27;60.66;101479.06;5039764;28;19921;-59
2022/05/16 12:07:13;;;;;;;;;;;;;;;22.17;62.19;101491.19;5041659;28;19928;-60
2022/05/16 12:09:58;;;;;;;;;;;;;;;21.94;61.56;101485.63;5040750;28;19928;-59
2022/05/16 12:12:29;;;;;;;;;;;;;;;21.94;61.65;101485.63;5045200;28;19975;-58
2022/05/16 12:15:11;;;;;;;;;;;;;;;21.77;62.40;101488.91;5023034;28;20363;-58
2022/05/16 12:17:36;;;;;;;;;;;;;;;21.83;63.65;101503.38;5042705;28;20379;-59
2022/05/16 12:20:09;;;;;;;;;;;;;;;21.86;64.27;101494.84;5044752;28;19925;-58
2022/05/16 12:22:34;;;;;;;;;;;;;;;22.15;63.64;101520.31;5043835;28;19928;-58
2022/05/16 12:25:04;;;;;;;;;;;;;;;21.87;63.61;101513.50;5046981;28;19916;-58
2022/05/16 12:27:31;;;;;;;;;;;;;;;21.76;63.31;101506.16;5046368;28;19923;-58
2022/05/16 12:30:01;;;;;;;;;;;;;;;21.77;64.15;101523.97;5042892;28;20355;-58
2022/05/16 12:32:30;;;;;;;;;;;;;;;21.47;64.80;101519.19;5041497;28;20376;-58
2022/05/16 12:35:21;;;;;;;;;;;;;;;21.28;64.54;101527.19;5041842;28;19966;-58
2022/05/16 12:37:46;;;;;;;;;;;;;;;21.27;64.86;101536.34;5017295;28;20361;-58
2022/05/16 12:40:11;;;;;;;;;;;;;;;21.23;64.77;101537.81;5044795;28;19952;-58
2022/05/16 12:42:50;;;;;;;;;;;;;;;20.97;65.34;101545.00;5043572;28;20662;-58
2022/05/16 12:45:34;;;;;;;;;;;;;;;20.88;66.05;101538.19;5040569;28;19917;-58
2022/05/16 12:48:03;;;;;;;;;;;;;;;20.75;66.08;101534.47;5044051;28;19964;-58
2022/05/16 12:50:31;;;;;;;;;;;;;;;20.77;66.44;101543.16;5045036;28;19925;-58
2022/05/16 12:53:15;;;;;;;;;;;;;;;20.87;66.99;101547.31;5045407;28;19932;-58
2022/05/16 12:55:40;;;;;;;;;;;;;;;20.85;66.27;101560.16;5044066;28;19928;-57
2022/05/16 12:58:12;;;;;;;;;;;;;;;21.04;66.86;101564.66;5044943;28;20057;-58
2022/05/16 13:00:46;;;;;;;;;;;;;;;20.72;66.70;101559.13;5045943;28;19927;-58
2022/05/16 13:03:14;;;;;;;;;;;;;;;20.68;67.48;101563.31;5043524;28;20287;-59
2022/05/16 13:05:45;;;;;;;;;;;;;;;20.48;67.20;101566.84;5047241;28;19920;-59
2022/05/16 13:08:33;;;;;;;;;;;;;;;20.45;67.69;101567.28;5046830;28;19921;-59
2022/05/16 13:11:25;;;;;;;;;;;;;;;20.55;68.63;101565.00;5049458;28;20020;-60
2022/05/16 13:14:03;;;;;;;;;;;;;;;20.44;68.40;101565.63;5036812;28;19925;-59
2022/05/16 13:16:30;;;;;;;;;;;;;;;20.46;68.34;101560.06;5047050;28;20382;-58
2022/05/16 13:19:15;;;;;;;;;;;;;;;20.51;68.84;101571.84;5045388;28;19970;-58